Chino Valley, AZ

3:26 AM MST on September 20, 2014 (GMT -0700)
Williams | Change Station
CLOSE
Current Station
Airport
Location: Williams,
Elevation: 6680 ft
Nearby Weather Stations

Elev 6680 ft 35.31 °N, 112.19 °W | Updated 5 days ago

Clear
Clear
57 °F
Feels Like 57 °F
N
0
Wind Variable Wind from SSW
Gusts 2 mph

Today
High -- | Low -- °F
--% Chance of Precip.
Yesterday
High -- | Low -- °F
Precip. -- in
6:16 AM 6:29 PM
Waning Crescent, 13% visible
Pressure 30.32 in
Visibility 10.0 miles
Clouds Clear
Dew Point 54 °F
Humidity 87%
Rainfall 0.00 in
Snow Depth 0 in , 0 in , 0 in
UV 6 out of 12
Pollen 6.50 out of 12
Air Quality Not available.
Flu Activity Not available.
METAR KCMR 141655Z AUTO 00000KT 10SM CLR 23/08 A3032 RMK AO1

More Conditions Fewer Conditions

Pressure 30.32 in
Visibility 10.0 miles
Clouds Clear
Dew Point 54 °F
Humidity 87%
Rainfall 0.00 in
Snow Depth 0 in , 0 in , 0 in
UV 6 out of 12
Pollen 6.50 out of 12
Air Quality Not available.
Flu Activity Not available.
METAR KCMR 141655Z AUTO 00000KT 10SM CLR 23/08 A3032 RMK AO1

More Conditions Fewer Conditions

10-Day Weather Forecast

Almanac

Astronomy

Sep. 20, 2014 Rise Set
Actual Time 6:16 AM MST 6:29 PM MST
Civil Twilight 5:51 AM MST 6:54 PM MST
Nautical Twilight 5:21 AM MST 7:24 PM MST
Astronomical Twilight 4:51 AM MST 7:53 PM MST
Moon 3:05 AM MST 4:29 PM MST
Length of Visible Light 13h 03m
Length of Day
12h 12m
Tomorrow will be 2m 10s shorter.
Waning Crescent, 13% of the Moon is Illuminated
Today
Waning Crescent
Sep 24
New
Oct 1
First Quarter
Oct 8
Full
Oct 15
Last Quarter

Today's Extremes

State Highs State Lows

Community

WunderPhotos

Upload Photos

1,754,827 photos uploaded!

WunderBlogs® & News

Nearby

Snow Depth

Station Depth Elevation
White Horse Lake 0 in 7180 ft
Wildcat 0 in 7850 ft
Snowslide Canyon 0 in 9730 ft
Promontory 0 in 7930 ft
Maverick Fork 0 in 9200 ft

Earthquake Activity

City Distance Mag. Time & Date
No recent earthquake activity has been reported nearby.
Minimum magnitude displayed is 2.5.

Coastal Water Temperatures

Place Temperature
No Stations Reporting

Nearby Weather Stations